createdAt,value
2023-05-04T00:00:12.410Z,23.16
2023-05-04T00:02:39.997Z,23.17
2023-05-04T00:05:08.901Z,23.17
2023-05-04T00:07:35.954Z,23.17
2023-05-04T00:10:03.355Z,23.16
2023-05-04T00:12:30.897Z,23.19
2023-05-04T00:14:58.271Z,23.14
2023-05-04T00:17:25.363Z,23.13
2023-05-04T00:19:52.499Z,23.13
2023-05-04T00:22:21.169Z,23.10
2023-05-04T00:24:48.251Z,23.07
2023-05-04T00:27:15.309Z,23.08
2023-05-04T00:29:42.378Z,23.06
2023-05-04T00:32:09.750Z,23.06
2023-05-04T00:34:36.870Z,23.03
2023-05-04T00:37:03.997Z,23.04
2023-05-04T00:39:32.828Z,23.09
2023-05-04T00:41:59.908Z,23.09
2023-05-04T00:44:26.996Z,22.95
2023-05-04T00:46:54.148Z,22.79
2023-05-04T00:49:21.579Z,22.92
2023-05-04T00:51:49.865Z,23.00
2023-05-04T00:54:17.191Z,22.80
2023-05-04T00:56:45.804Z,22.73
2023-05-04T00:59:12.966Z,22.74
2023-05-04T01:01:40.558Z,22.85
2023-05-04T01:04:07.764Z,22.61
2023-05-04T01:06:40.476Z,22.84
2023-05-04T01:09:11.164Z,23.20
2023-05-04T01:11:41.350Z,23.45
2023-05-04T01:14:10.401Z,23.44
2023-05-04T01:16:37.526Z,23.23
2023-05-04T01:19:05.013Z,23.65
2023-05-04T01:21:33.584Z,23.77
2023-05-04T01:24:02.209Z,23.77
2023-05-04T01:26:32.879Z,23.22
2023-05-04T01:29:02.170Z,23.19
2023-05-04T01:31:29.580Z,23.06
2023-05-04T01:33:57.252Z,23.11
2023-05-04T01:36:24.572Z,22.83
2023-05-04T01:38:55.752Z,22.83
2023-05-04T01:41:23.190Z,22.89
2023-05-04T01:43:50.418Z,22.82
2023-05-04T01:46:17.870Z,22.77
2023-05-04T01:48:45.208Z,22.50
2023-05-04T01:51:12.336Z,22.55
2023-05-04T01:53:39.430Z,22.71
2023-05-04T01:56:08.451Z,22.68
2023-05-04T01:58:35.541Z,22.76
2023-05-04T02:01:02.768Z,22.72
2023-05-04T02:03:30.049Z,22.84
2023-05-04T02:05:57.268Z,22.72
2023-05-04T02:08:24.344Z,22.67
2023-05-04T02:10:52.291Z,22.72
2023-05-04T02:13:20.806Z,22.68
2023-05-04T02:15:47.982Z,22.69
2023-05-04T02:18:15.123Z,22.59
2023-05-04T02:20:42.294Z,22.59
2023-05-04T02:23:09.382Z,22.51
2023-05-04T02:25:38.955Z,22.54
2023-05-04T02:28:06.035Z,22.65
2023-05-04T02:30:34.691Z,22.79
2023-05-04T02:33:01.847Z,22.84
2023-05-04T02:35:28.962Z,22.66
2023-05-04T02:37:56.227Z,22.70
2023-05-04T02:40:26.048Z,22.77
2023-05-04T02:42:55.199Z,22.87
2023-05-04T02:45:22.513Z,22.95
2023-05-04T02:47:51.202Z,22.87
2023-05-04T02:50:18.393Z,22.92
2023-05-04T02:52:45.568Z,22.93
2023-05-04T02:55:12.786Z,23.06
2023-05-04T02:57:42.325Z,22.96
2023-05-04T03:00:10.105Z,22.86
2023-05-04T03:02:37.254Z,22.93
2023-05-04T03:05:06.192Z,22.95
2023-05-04T03:07:33.265Z,22.85
2023-05-04T03:10:00.415Z,22.94
2023-05-04T03:12:28.068Z,22.89
2023-05-04T03:14:55.321Z,22.94
2023-05-04T03:17:22.977Z,23.11
2023-05-04T03:19:50.221Z,23.14
2023-05-04T03:22:19.425Z,23.20
2023-05-04T03:24:47.381Z,23.11
2023-05-04T03:27:14.754Z,23.12
2023-05-04T03:29:41.861Z,23.15
2023-05-04T03:32:09.543Z,23.18
2023-05-04T03:34:36.961Z,23.12
2023-05-04T03:37:06.678Z,23.11
2023-05-04T03:39:35.259Z,22.99
2023-05-04T03:42:02.901Z,23.15
2023-05-04T03:44:30.097Z,23.07
2023-05-04T03:46:57.144Z,22.95
2023-05-04T03:49:24.761Z,23.00
2023-05-04T03:51:51.884Z,23.06
2023-05-04T03:54:18.973Z,22.99
2023-05-04T03:56:47.675Z,22.99
2023-05-04T03:59:17.138Z,23.05
2023-05-04T04:01:45.335Z,23.00
2023-05-04T04:04:13.053Z,23.05
2023-05-04T04:06:42.682Z,23.14
2023-05-04T04:09:10.478Z,23.05
2023-05-04T04:11:37.627Z,23.08
2023-05-04T04:14:06.917Z,22.97
2023-05-04T04:16:34.035Z,23.10
2023-05-04T04:19:01.484Z,23.18
2023-05-04T04:21:29.299Z,23.28
2023-05-04T04:23:56.418Z,23.35
2023-05-04T04:26:23.931Z,23.30
2023-05-04T04:28:51.221Z,23.36
2023-05-04T04:31:20.253Z,23.41
2023-05-04T04:33:49.949Z,23.34
2023-05-04T04:36:17.444Z,23.27
2023-05-04T04:38:45.006Z,23.33
2023-05-04T04:41:12.521Z,23.26
2023-05-04T04:43:39.597Z,23.30
2023-05-04T04:46:07.025Z,23.39
2023-05-04T04:48:35.625Z,23.38
2023-05-04T04:51:03.292Z,23.43
2023-05-04T04:53:30.672Z,23.47
2023-05-04T04:55:58.656Z,23.46
2023-05-04T04:58:25.838Z,23.49
2023-05-04T05:00:53.200Z,23.44
2023-05-04T05:03:20.549Z,23.46
2023-05-04T05:05:49.497Z,23.46
2023-05-04T05:08:16.698Z,23.46
2023-05-04T05:10:44.212Z,23.41
2023-05-04T05:13:11.388Z,23.44
2023-05-04T05:15:39.148Z,23.44
2023-05-04T05:18:06.432Z,23.37
2023-05-04T05:20:34.649Z,23.42
2023-05-04T05:23:03.187Z,23.47
2023-05-04T05:25:30.308Z,23.47
2023-05-04T05:27:57.582Z,23.49
2023-05-04T05:30:25.236Z,23.50
2023-05-04T05:32:53.073Z,23.50
2023-05-04T05:35:20.540Z,23.38
2023-05-04T05:37:47.956Z,23.40
2023-05-04T05:40:17.049Z,23.33
2023-05-04T05:42:45.727Z,23.38
2023-05-04T05:45:13.333Z,23.35
2023-05-04T05:47:40.451Z,23.32
2023-05-04T05:50:08.751Z,23.32
2023-05-04T05:52:36.386Z,23.44
2023-05-04T05:55:04.142Z,23.46
2023-05-04T05:57:33.285Z,23.42
2023-05-04T06:00:00.432Z,23.52
2023-05-04T06:02:28.099Z,23.48
2023-05-04T06:04:55.838Z,23.49
2023-05-04T06:07:23.095Z,23.44
2023-05-04T06:09:50.675Z,23.46
2023-05-04T06:12:18.373Z,23.52
2023-05-04T06:14:46.950Z,23.42
2023-05-04T06:17:15.039Z,23.51
2023-05-04T06:19:43.257Z,23.48
2023-05-04T06:22:10.580Z,23.50
2023-05-04T06:24:38.991Z,23.57
2023-05-04T06:27:06.124Z,23.56
2023-05-04T06:29:33.646Z,23.48
2023-05-04T06:32:02.614Z,23.49
2023-05-04T06:34:29.722Z,23.52
2023-05-04T06:36:57.167Z,23.58
2023-05-04T06:39:24.890Z,23.60
2023-05-04T06:41:53.841Z,23.55
2023-05-04T06:44:22.011Z,23.52
2023-05-04T06:46:49.866Z,23.55
2023-05-04T06:49:19.595Z,23.68
2023-05-04T06:51:46.674Z,23.74
2023-05-04T06:54:14.337Z,23.73
2023-05-04T06:56:41.691Z,23.60
2023-05-04T06:59:08.760Z,23.58
2023-05-04T07:01:36.042Z,23.66
2023-05-04T07:04:04.927Z,23.82
2023-05-04T07:06:33.516Z,23.79
2023-05-04T07:09:00.743Z,23.60
2023-05-04T07:11:28.859Z,23.80
2023-05-04T07:13:56.557Z,23.69
2023-05-04T07:16:24.865Z,23.56
2023-05-04T07:18:52.043Z,23.60
2023-05-04T07:21:27.490Z,23.61
2023-05-04T07:23:58.212Z,23.66
2023-05-04T07:26:25.911Z,23.64
2023-05-04T07:28:53.538Z,23.72
2023-05-04T07:31:21.140Z,23.65
2023-05-04T07:33:48.701Z,23.65
2023-05-04T07:36:16.484Z,23.59
2023-05-04T07:38:43.691Z,23.66
2023-05-04T07:41:12.277Z,23.65
2023-05-04T07:43:39.669Z,23.65
2023-05-04T07:46:07.358Z,23.65
2023-05-04T07:48:35.659Z,23.68
2023-05-04T07:51:03.840Z,23.72
2023-05-04T07:53:31.442Z,23.70
2023-05-04T07:56:07.327Z,23.81
2023-05-04T07:58:36.008Z,24.02
2023-05-04T08:01:04.416Z,24.11
2023-05-04T08:03:32.156Z,24.09
2023-05-04T08:05:59.644Z,24.13
2023-05-04T08:08:27.769Z,24.13
2023-05-04T08:11:01.932Z,24.33
2023-05-04T08:13:37.005Z,24.40
2023-05-04T08:16:04.347Z,24.36
2023-05-04T08:18:32.129Z,24.38
2023-05-04T08:21:00.775Z,24.32
2023-05-04T08:23:28.532Z,24.39
2023-05-04T08:25:56.231Z,24.29
2023-05-04T08:28:23.449Z,24.44
2023-05-04T08:30:52.615Z,24.51
2023-05-04T08:33:19.784Z,24.43
2023-05-04T08:35:47.544Z,24.36
2023-05-04T08:38:15.787Z,24.61
2023-05-04T08:40:43.949Z,24.56
2023-05-04T08:43:11.200Z,24.46
2023-05-04T08:45:39.013Z,24.59
2023-05-04T08:48:07.844Z,24.47
2023-05-04T08:50:36.424Z,24.65
2023-05-04T08:53:06.440Z,24.56
2023-05-04T08:55:34.363Z,24.58
2023-05-04T08:58:02.063Z,24.67
2023-05-04T09:00:30.089Z,24.62
2023-05-04T09:02:58.918Z,24.76
2023-05-04T09:05:28.557Z,24.88
2023-05-04T09:07:55.717Z,24.89
2023-05-04T09:10:23.649Z,24.87
2023-05-04T09:12:51.565Z,24.83
2023-05-04T09:15:19.787Z,24.75
2023-05-04T09:17:57.897Z,24.75
2023-05-04T09:20:25.679Z,24.92
2023-05-04T09:23:03.752Z,24.81
2023-05-04T09:25:31.477Z,24.84
2023-05-04T09:27:58.604Z,24.82
2023-05-04T09:30:26.021Z,24.82
2023-05-04T09:32:54.858Z,24.86
2023-05-04T09:35:33.246Z,25.04
2023-05-04T09:38:01.466Z,25.49
2023-05-04T09:40:33.568Z,25.20
2023-05-04T09:43:01.157Z,25.32
2023-05-04T09:45:38.842Z,25.28
2023-05-04T09:48:15.162Z,25.42
2023-05-04T09:50:47.966Z,25.54
2023-05-04T09:53:15.942Z,25.30
2023-05-04T09:55:45.814Z,25.69
2023-05-04T09:58:14.910Z,25.39
2023-05-04T10:00:43.267Z,25.53
2023-05-04T10:03:11.854Z,25.68
2023-05-04T10:05:39.586Z,25.86
2023-05-04T10:08:08.277Z,25.84
2023-05-04T10:10:36.024Z,25.80
2023-05-04T10:13:05.193Z,25.66
2023-05-04T10:15:34.287Z,25.96
2023-05-04T10:18:12.221Z,25.96
2023-05-04T10:20:55.115Z,26.02
2023-05-04T10:23:34.019Z,26.02
2023-05-04T10:26:17.127Z,25.75
2023-05-04T10:28:54.072Z,25.92
2023-05-04T10:31:21.454Z,25.60
2023-05-04T10:33:48.626Z,25.49
2023-05-04T10:36:16.321Z,25.84
2023-05-04T10:38:43.450Z,25.66
2023-05-04T10:41:14.544Z,25.82
2023-05-04T10:43:42.674Z,25.81
2023-05-04T10:46:21.234Z,26.01
2023-05-04T10:48:49.541Z,25.89
2023-05-04T10:51:20.215Z,25.69
2023-05-04T10:53:48.815Z,25.76
2023-05-04T10:56:22.949Z,26.04
2023-05-04T10:58:50.846Z,25.97
2023-05-04T11:01:19.194Z,25.76
2023-05-04T11:03:48.904Z,25.83
2023-05-04T11:06:16.973Z,25.80
2023-05-04T11:08:46.177Z,25.82
2023-05-04T11:11:13.802Z,25.94
2023-05-04T11:13:42.752Z,26.00
2023-05-04T11:16:10.846Z,25.91
2023-05-04T11:18:38.449Z,25.75
2023-05-04T11:21:07.233Z,25.96
2023-05-04T11:23:34.318Z,26.10
2023-05-04T11:26:04.809Z,25.98
2023-05-04T11:28:32.168Z,25.99
2023-05-04T11:30:59.840Z,25.65
2023-05-04T11:33:27.868Z,25.88
2023-05-04T11:35:59.996Z,25.83
2023-05-04T11:38:30.377Z,26.12
2023-05-04T11:40:58.845Z,26.21
2023-05-04T11:43:27.381Z,26.03
2023-05-04T11:45:55.901Z,26.33
2023-05-04T11:48:23.187Z,26.34
2023-05-04T11:50:50.568Z,26.29
2023-05-04T11:53:18.369Z,26.45
2023-05-04T11:55:47.463Z,26.39
2023-05-04T11:58:15.479Z,26.26
2023-05-04T12:00:43.897Z,26.34
2023-05-04T12:03:11.985Z,26.48
2023-05-04T12:05:46.500Z,26.21
2023-05-04T12:08:22.012Z,25.43
2023-05-04T12:10:51.027Z,25.45
2023-05-04T12:13:19.783Z,26.12
2023-05-04T12:15:47.162Z,26.05
2023-05-04T12:18:23.515Z,26.12
2023-05-04T12:20:51.842Z,26.23
2023-05-04T12:23:19.490Z,25.90
2023-05-04T12:25:57.466Z,26.00
2023-05-04T12:28:30.121Z,25.42
2023-05-04T12:30:58.313Z,25.22
2023-05-04T12:33:25.920Z,25.45
2023-05-04T12:35:53.197Z,26.21
2023-05-04T12:38:20.843Z,25.71
2023-05-04T12:40:47.980Z,25.51
2023-05-04T12:43:15.050Z,25.71
2023-05-04T12:45:44.093Z,26.07
2023-05-04T12:48:11.995Z,26.10
2023-05-04T12:50:39.582Z,26.39
2023-05-04T12:53:07.934Z,25.47
2023-05-04T12:55:35.025Z,26.22
2023-05-04T12:58:03.343Z,26.22
2023-05-04T13:00:30.463Z,26.41
2023-05-04T13:03:00.056Z,26.36
2023-05-04T13:05:27.692Z,25.75
2023-05-04T13:07:55.555Z,25.52
2023-05-04T13:10:22.788Z,25.31
2023-05-04T13:12:51.009Z,25.93
2023-05-04T13:15:18.714Z,25.79
2023-05-04T13:17:46.299Z,26.42
2023-05-04T13:20:15.783Z,25.88
2023-05-04T13:22:46.023Z,25.35
2023-05-04T13:25:14.765Z,25.65
2023-05-04T13:27:42.815Z,26.28
2023-05-04T13:30:10.459Z,26.22
2023-05-04T13:32:38.113Z,26.28
2023-05-04T13:35:06.569Z,26.33
2023-05-04T13:37:36.659Z,25.34
2023-05-04T13:40:04.610Z,25.47
2023-05-04T13:42:31.688Z,25.21
2023-05-04T13:44:58.803Z,25.96
2023-05-04T13:47:26.519Z,26.07
2023-05-04T13:49:54.613Z,26.44
2023-05-04T13:52:22.109Z,26.36
2023-05-04T13:54:50.819Z,26.41
2023-05-04T13:57:17.944Z,26.14
2023-05-04T13:59:58.316Z,25.76
2023-05-04T14:02:37.788Z,25.85
2023-05-04T14:05:05.445Z,26.34
2023-05-04T14:07:34.502Z,26.56
2023-05-04T14:10:03.469Z,26.15
2023-05-04T14:12:31.356Z,26.23
2023-05-04T14:14:59.205Z,26.38
2023-05-04T14:17:26.598Z,26.28
2023-05-04T14:19:53.690Z,26.33
2023-05-04T14:22:21.335Z,26.46
2023-05-04T14:24:49.940Z,26.48
2023-05-04T14:27:18.962Z,26.65
2023-05-04T14:29:47.872Z,25.46
2023-05-04T14:32:15.314Z,25.98
2023-05-04T14:34:42.452Z,26.43
2023-05-04T14:37:10.463Z,25.85
2023-05-04T14:39:37.665Z,25.20
2023-05-04T14:42:04.866Z,25.19
2023-05-04T14:44:33.495Z,25.06
2023-05-04T14:47:01.151Z,25.30
2023-05-04T14:49:36.700Z,25.58
2023-05-04T14:52:05.077Z,25.64
2023-05-04T14:54:32.348Z,25.96
2023-05-04T14:56:59.410Z,25.35
2023-05-04T14:59:26.550Z,25.12
2023-05-04T15:01:55.913Z,25.00
2023-05-04T15:04:23.256Z,25.05
2023-05-04T15:06:50.331Z,25.73
2023-05-04T15:09:17.573Z,26.07
2023-05-04T15:11:44.858Z,25.88
2023-05-04T15:14:12.007Z,25.81
2023-05-04T15:16:39.202Z,26.03
2023-05-04T15:19:07.963Z,26.14
2023-05-04T15:21:35.250Z,25.88
2023-05-04T15:24:02.384Z,26.14
2023-05-04T15:26:29.511Z,26.02
2023-05-04T15:28:56.745Z,25.95
2023-05-04T15:31:23.836Z,26.33
2023-05-04T15:33:51.629Z,26.34
2023-05-04T15:36:20.255Z,26.39
2023-05-04T15:38:47.393Z,26.25
2023-05-04T15:41:14.528Z,26.18
2023-05-04T15:43:41.661Z,26.09
2023-05-04T15:46:08.805Z,26.18
2023-05-04T15:48:35.920Z,26.20
2023-05-04T15:51:03.039Z,26.27
2023-05-04T15:53:31.623Z,26.17
2023-05-04T15:55:58.752Z,26.11
2023-05-04T15:58:25.861Z,26.16
2023-05-04T16:00:53.058Z,26.28
2023-05-04T16:03:20.275Z,26.26
2023-05-04T16:05:47.536Z,26.20
2023-05-04T16:08:14.644Z,26.18
2023-05-04T16:10:43.178Z,26.17
2023-05-04T16:13:12.028Z,26.16
2023-05-04T16:15:39.432Z,26.12
2023-05-04T16:18:06.625Z,26.15
2023-05-04T16:20:33.767Z,26.08
2023-05-04T16:23:00.939Z,26.20
2023-05-04T16:25:28.253Z,26.08
2023-05-04T16:27:57.446Z,26.23
2023-05-04T16:30:24.615Z,26.15
2023-05-04T16:32:51.859Z,26.15
2023-05-04T16:35:19.138Z,26.10
2023-05-04T16:37:46.279Z,26.20
2023-05-04T16:40:14.226Z,26.15
2023-05-04T16:42:41.530Z,26.29
2023-05-04T16:45:11.093Z,26.17
2023-05-04T16:47:38.394Z,26.20
2023-05-04T16:50:06.860Z,26.23
2023-05-04T16:52:34.635Z,26.17
2023-05-04T16:55:01.746Z,26.23
2023-05-04T16:57:29.085Z,26.17
2023-05-04T16:59:56.462Z,26.17
2023-05-04T17:02:25.111Z,26.16
2023-05-04T17:04:52.533Z,26.16
2023-05-04T17:07:19.704Z,26.17
2023-05-04T17:09:48.006Z,26.15
2023-05-04T17:12:15.774Z,26.22
2023-05-04T17:14:42.958Z,26.28
2023-05-04T17:17:10.092Z,26.26
2023-05-04T17:19:38.656Z,26.17
2023-05-04T17:22:05.903Z,26.16
2023-05-04T17:24:33.017Z,26.17
2023-05-04T17:27:00.200Z,26.14
2023-05-04T17:29:27.325Z,26.09
2023-05-04T17:31:54.493Z,25.92
2023-05-04T17:34:21.748Z,25.85
2023-05-04T17:36:50.293Z,25.72
2023-05-04T17:39:17.371Z,25.47
2023-05-04T17:41:44.512Z,25.51
2023-05-04T17:44:11.661Z,25.39
2023-05-04T17:46:38.796Z,25.48
2023-05-04T17:49:05.966Z,25.23
2023-05-04T17:51:33.562Z,25.21
2023-05-04T17:54:02.858Z,24.87
2023-05-04T17:56:30.291Z,24.76
2023-05-04T17:58:57.438Z,24.90
2023-05-04T18:01:24.556Z,25.19
2023-05-04T18:03:52.241Z,25.08
2023-05-04T18:06:19.498Z,25.23
2023-05-04T18:08:46.588Z,25.14
2023-05-04T18:11:15.125Z,24.82
2023-05-04T18:13:42.225Z,24.79
2023-05-04T18:16:09.457Z,24.73
2023-05-04T18:18:37.082Z,24.62
2023-05-04T18:21:04.544Z,24.89
2023-05-04T18:23:31.840Z,25.04
2023-05-04T18:25:58.961Z,24.87
2023-05-04T18:28:27.558Z,24.83
2023-05-04T18:30:55.340Z,24.78
2023-05-04T18:33:22.526Z,24.96
2023-05-04T18:35:49.948Z,24.72
2023-05-04T18:38:17.129Z,24.72
2023-05-04T18:40:45.013Z,24.67
2023-05-04T18:43:12.088Z,24.67
2023-05-04T18:45:40.767Z,24.62
2023-05-04T18:48:08.455Z,24.62
2023-05-04T18:50:36.496Z,24.62
2023-05-04T18:53:04.218Z,24.62
2023-05-04T18:55:31.802Z,24.57
2023-05-04T18:58:00.023Z,24.46
2023-05-04T19:00:27.143Z,24.44
2023-05-04T19:02:56.197Z,24.49
2023-05-04T19:05:24.486Z,24.48
2023-05-04T19:07:51.720Z,24.53
2023-05-04T19:10:18.867Z,24.50
2023-05-04T19:12:46.032Z,24.48
2023-05-04T19:15:13.347Z,24.48
2023-05-04T19:17:40.593Z,24.36
2023-05-04T19:20:10.562Z,24.45
2023-05-04T19:22:38.200Z,24.88
2023-05-04T19:25:05.709Z,25.30
2023-05-04T19:27:32.794Z,25.37
2023-05-04T19:29:59.905Z,25.40
2023-05-04T19:32:26.988Z,25.50
2023-05-04T19:34:54.824Z,25.54
2023-05-04T19:37:23.904Z,25.58
2023-05-04T19:39:51.495Z,25.60
2023-05-04T19:42:18.579Z,25.62
2023-05-04T19:44:45.731Z,25.69
2023-05-04T19:47:12.901Z,25.69
2023-05-04T19:49:40.008Z,25.61
2023-05-04T19:52:07.243Z,25.62
2023-05-04T19:54:35.959Z,25.70
2023-05-04T19:57:03.258Z,25.70
2023-05-04T19:59:30.436Z,25.71
2023-05-04T20:01:58.566Z,25.61
2023-05-04T20:04:25.790Z,25.65
2023-05-04T20:06:53.472Z,25.70
2023-05-04T20:09:21.136Z,25.67
2023-05-04T20:11:50.681Z,25.69
2023-05-04T20:14:18.469Z,25.66
2023-05-04T20:16:45.617Z,25.66
2023-05-04T20:19:12.800Z,25.67
2023-05-04T20:21:40.050Z,25.61
2023-05-04T20:24:07.274Z,25.59
2023-05-04T20:26:35.349Z,25.61
2023-05-04T20:29:05.115Z,25.61
2023-05-04T20:31:32.466Z,25.59
2023-05-04T20:33:59.629Z,25.57
2023-05-04T20:36:26.763Z,25.62
2023-05-04T20:38:53.916Z,25.61
2023-05-04T20:41:21.197Z,25.63
2023-05-04T20:43:48.829Z,25.68
2023-05-04T20:46:17.535Z,25.64
2023-05-04T20:48:44.677Z,25.62
2023-05-04T20:51:14.462Z,25.61
2023-05-04T20:53:42.655Z,25.65
2023-05-04T20:56:09.953Z,25.68
2023-05-04T20:58:37.060Z,25.68
2023-05-04T21:01:04.785Z,25.65
2023-05-04T21:03:33.578Z,25.61
2023-05-04T21:06:01.727Z,25.58
2023-05-04T21:08:29.021Z,25.59
2023-05-04T21:10:56.886Z,25.59
2023-05-04T21:13:24.503Z,25.58
2023-05-04T21:15:51.632Z,25.56
2023-05-04T21:18:18.936Z,25.55
2023-05-04T21:20:47.516Z,25.56
2023-05-04T21:23:14.720Z,25.53
2023-05-04T21:25:41.907Z,25.52
2023-05-04T21:28:09.046Z,25.55
2023-05-04T21:30:36.265Z,25.58
2023-05-04T21:33:03.359Z,25.59
2023-05-04T21:35:31.214Z,25.58
2023-05-04T21:38:00.308Z,25.56
2023-05-04T21:40:28.918Z,25.53
2023-05-04T21:42:56.060Z,25.51
2023-05-04T21:45:23.379Z,25.53
2023-05-04T21:47:50.582Z,25.49
2023-05-04T21:50:17.907Z,25.52
2023-05-04T21:52:46.122Z,25.51
2023-05-04T21:55:14.641Z,25.47
2023-05-04T21:57:42.013Z,25.45
2023-05-04T22:00:09.969Z,25.46
2023-05-04T22:02:38.391Z,25.49
2023-05-04T22:05:05.861Z,25.47
2023-05-04T22:07:35.337Z,25.48
2023-05-04T22:10:04.070Z,25.45
2023-05-04T22:12:33.559Z,25.46
2023-05-04T22:15:00.847Z,25.47
2023-05-04T22:17:28.052Z,25.47
2023-05-04T22:19:55.733Z,25.46
2023-05-04T22:22:23.618Z,25.42
2023-05-04T22:24:50.712Z,25.43
2023-05-04T22:27:17.753Z,25.44
2023-05-04T22:29:46.395Z,25.41
2023-05-04T22:32:13.475Z,25.41
2023-05-04T22:34:40.605Z,25.41
2023-05-04T22:37:08.472Z,25.37
2023-05-04T22:39:36.272Z,25.37
2023-05-04T22:42:04.202Z,25.42
2023-05-04T22:44:31.287Z,25.43
2023-05-04T22:47:00.352Z,25.45
2023-05-04T22:49:27.952Z,25.45
2023-05-04T22:51:55.125Z,25.43
2023-05-04T22:54:22.424Z,25.47
2023-05-04T22:56:50.059Z,25.46
2023-05-04T22:59:17.243Z,25.46
2023-05-04T23:01:44.401Z,25.41
2023-05-04T23:04:13.493Z,25.41
2023-05-04T23:06:40.648Z,25.40
2023-05-04T23:09:08.274Z,25.40
2023-05-04T23:11:35.820Z,25.39
2023-05-04T23:14:02.939Z,25.44
2023-05-04T23:16:30.113Z,25.38
2023-05-04T23:18:57.373Z,25.36
2023-05-04T23:21:25.962Z,25.42
2023-05-04T23:23:53.680Z,25.45
2023-05-04T23:26:20.927Z,25.41
2023-05-04T23:28:48.721Z,25.38
2023-05-04T23:31:16.476Z,25.43
2023-05-04T23:33:43.596Z,25.40
2023-05-04T23:36:11.196Z,25.43
2023-05-04T23:38:39.773Z,25.41
2023-05-04T23:41:06.873Z,25.44
2023-05-04T23:43:33.974Z,25.37
2023-05-04T23:46:01.200Z,25.41
2023-05-04T23:48:28.424Z,25.41
2023-05-04T23:50:55.865Z,25.42
2023-05-04T23:53:23.010Z,25.41
2023-05-04T23:55:57.997Z,25.41
2023-05-04T23:58:25.205Z,25.42
